createdAt,value
2022-10-18T00:01:15.078Z,100.00
2022-10-18T00:06:18.131Z,100.00
2022-10-18T00:08:46.407Z,100.00
2022-10-18T00:11:16.026Z,100.00
2022-10-18T00:13:44.439Z,100.00
2022-10-18T00:16:14.670Z,100.00
2022-10-18T00:18:43.691Z,100.00
2022-10-18T00:21:15.958Z,100.00
2022-10-18T00:23:44.410Z,100.00
2022-10-18T00:26:14.338Z,100.00
2022-10-18T00:28:44.743Z,100.00
2022-10-18T00:31:14.936Z,100.00
2022-10-18T00:33:44.085Z,100.00
2022-10-18T00:36:12.511Z,100.00
2022-10-18T00:38:41.138Z,100.00
2022-10-18T00:41:11.546Z,100.00
2022-10-18T00:43:59.975Z,100.00
2022-10-18T00:46:29.611Z,100.00
2022-10-18T00:49:14.581Z,100.00
2022-10-18T00:51:45.225Z,100.00
2022-10-18T00:54:13.293Z,100.00
2022-10-18T00:56:41.639Z,100.00
2022-10-18T00:59:11.445Z,100.00
2022-10-18T01:01:39.720Z,100.00
2022-10-18T01:04:08.010Z,100.00
2022-10-18T01:06:41.217Z,100.00
2022-10-18T01:09:17.469Z,100.00
2022-10-18T01:11:59.529Z,100.00
2022-10-18T01:17:28.714Z,100.00
2022-10-18T01:20:42.219Z,100.00
2022-10-18T01:23:15.225Z,100.00
2022-10-18T01:25:51.680Z,100.00
2022-10-18T01:28:35.863Z,100.00
2022-10-18T01:31:06.257Z,100.00
2022-10-18T01:33:39.301Z,100.00
2022-10-18T01:36:11.598Z,100.00
2022-10-18T01:38:40.862Z,100.00
2022-10-18T01:41:14.776Z,100.00
2022-10-18T01:43:45.209Z,100.00
2022-10-18T01:46:16.993Z,100.00
2022-10-18T01:48:45.364Z,100.00
2022-10-18T01:51:13.579Z,100.00
2022-10-18T01:53:41.937Z,100.00
2022-10-18T01:56:19.473Z,100.00
2022-10-18T01:59:04.095Z,100.00
2022-10-18T02:01:40.435Z,100.00
2022-10-18T02:04:15.367Z,100.00
2022-10-18T02:06:45.464Z,100.00
2022-10-18T02:09:17.913Z,100.00
2022-10-18T02:14:34.358Z,100.00
2022-10-18T02:17:07.317Z,100.00
2022-10-18T02:19:38.834Z,100.00
2022-10-18T02:22:09.071Z,100.00
2022-10-18T02:24:44.342Z,100.00
2022-10-18T02:27:12.693Z,100.00
2022-10-18T02:29:42.042Z,100.00
2022-10-18T02:32:15.413Z,100.00
2022-10-18T02:34:46.303Z,100.00
2022-10-18T02:37:15.743Z,100.00
2022-10-18T02:39:46.714Z,100.00
2022-10-18T02:42:15.880Z,100.00
2022-10-18T02:44:44.421Z,100.00
2022-10-18T02:47:14.316Z,100.00
2022-10-18T02:49:42.658Z,100.00
2022-10-18T02:52:10.891Z,100.00
2022-10-18T02:54:39.208Z,100.00
2022-10-18T02:57:07.456Z,100.00
2022-10-18T02:59:35.707Z,100.00
2022-10-18T03:02:03.929Z,100.00
2022-10-18T03:04:33.533Z,100.00
2022-10-18T03:07:01.790Z,100.00
2022-10-18T03:09:30.199Z,100.00
2022-10-18T03:11:58.554Z,100.00
2022-10-18T03:14:26.806Z,100.00
2022-10-18T03:16:55.090Z,100.00
2022-10-18T03:19:23.411Z,100.00
2022-10-18T03:21:52.950Z,100.00
2022-10-18T03:24:21.225Z,100.00
2022-10-18T03:26:49.475Z,100.00
2022-10-18T03:29:17.809Z,100.00
2022-10-18T03:31:46.004Z,100.00
2022-10-18T03:34:15.755Z,100.00
2022-10-18T03:36:43.981Z,100.00
2022-10-18T03:39:13.768Z,100.00
2022-10-18T03:41:41.964Z,100.00
2022-10-18T03:44:10.242Z,100.00
2022-10-18T03:46:38.480Z,100.00
2022-10-18T03:49:06.757Z,100.00
2022-10-18T03:51:34.935Z,100.00
2022-10-18T03:54:03.257Z,100.00
2022-10-18T03:56:32.963Z,100.00
2022-10-18T03:59:01.211Z,100.00
2022-10-18T04:01:29.481Z,100.00
2022-10-18T04:03:57.743Z,100.00
2022-10-18T04:06:25.949Z,100.00
2022-10-18T04:08:55.899Z,100.00
2022-10-18T04:11:24.096Z,100.00
2022-10-18T04:13:53.657Z,100.00
2022-10-18T04:16:21.897Z,100.00
2022-10-18T04:18:50.098Z,100.00
2022-10-18T04:21:18.814Z,100.00
2022-10-18T04:23:48.285Z,100.00
2022-10-18T04:26:16.991Z,100.00
2022-10-18T04:28:45.410Z,100.00
2022-10-18T04:31:15.085Z,100.00
2022-10-18T04:33:43.342Z,100.00
2022-10-18T04:36:11.597Z,100.00
2022-10-18T04:38:40.095Z,100.00
2022-10-18T04:41:08.308Z,100.00
2022-10-18T04:43:36.660Z,100.00
2022-10-18T04:46:04.987Z,100.00
2022-10-18T04:48:34.675Z,100.00
2022-10-18T04:51:02.905Z,100.00
2022-10-18T04:53:31.123Z,100.00
2022-10-18T04:55:59.495Z,100.00
2022-10-18T04:58:27.813Z,100.00
2022-10-18T05:00:56.071Z,100.00
2022-10-18T05:03:25.798Z,100.00
2022-10-18T05:06:01.960Z,100.00
2022-10-18T05:08:32.744Z,100.00
2022-10-18T05:11:01.316Z,100.00
2022-10-18T05:13:29.752Z,100.00
2022-10-18T05:15:59.410Z,100.00
2022-10-18T05:18:27.857Z,100.00
2022-10-18T05:20:57.898Z,100.00
2022-10-18T05:23:26.433Z,100.00
2022-10-18T05:25:55.179Z,100.00
2022-10-18T05:28:41.077Z,100.00
2022-10-18T05:31:11.358Z,100.00
2022-10-18T05:33:39.804Z,100.00
2022-10-18T05:36:10.315Z,100.00
2022-10-18T05:38:42.199Z,100.00
2022-10-18T05:41:11.099Z,100.00
2022-10-18T05:43:39.430Z,100.00
2022-10-18T05:46:13.705Z,100.00
2022-10-18T05:48:44.457Z,100.00
2022-10-18T05:51:14.153Z,100.00
2022-10-18T05:53:42.366Z,100.00
2022-10-18T05:56:11.926Z,100.00
2022-10-18T05:58:40.925Z,100.00
2022-10-18T06:01:09.844Z,100.00
2022-10-18T06:03:38.225Z,100.00
2022-10-18T06:06:08.118Z,100.00
2022-10-18T06:08:39.015Z,100.00
2022-10-18T06:11:08.058Z,100.00
2022-10-18T06:13:36.370Z,100.00
2022-10-18T06:16:04.834Z,100.00
2022-10-18T06:18:33.022Z,100.00
2022-10-18T06:21:01.214Z,100.00
2022-10-18T06:23:29.830Z,100.00
2022-10-18T06:26:01.663Z,100.00
2022-10-18T06:28:30.608Z,100.00
2022-10-18T06:30:59.196Z,100.00
2022-10-18T06:33:27.565Z,100.00
2022-10-18T06:35:57.275Z,100.00
2022-10-18T06:38:25.926Z,100.00
2022-10-18T06:40:54.308Z,100.00
2022-10-18T06:43:24.554Z,100.00
2022-10-18T06:45:53.483Z,100.00
2022-10-18T06:48:22.676Z,100.00
2022-10-18T06:50:56.881Z,100.00
2022-10-18T06:53:25.390Z,100.00
2022-10-18T06:55:53.786Z,100.00
2022-10-18T06:58:23.452Z,100.00
2022-10-18T07:00:51.716Z,100.00
2022-10-18T07:03:21.702Z,100.00
2022-10-18T07:05:50.139Z,100.00
2022-10-18T07:08:18.863Z,100.00
2022-10-18T07:10:53.209Z,100.00
2022-10-18T07:13:38.341Z,100.00
2022-10-18T07:16:14.123Z,100.00
2022-10-18T07:18:47.198Z,100.00
2022-10-18T07:21:16.785Z,100.00
2022-10-18T07:23:46.156Z,100.00
2022-10-18T07:26:16.063Z,100.00
2022-10-18T07:28:48.079Z,100.00
2022-10-18T07:31:16.721Z,100.00
2022-10-18T07:33:44.986Z,100.00
2022-10-18T07:36:14.521Z,100.00
2022-10-18T07:38:49.317Z,100.00
2022-10-18T07:41:17.888Z,100.00
2022-10-18T07:43:49.143Z,100.00
2022-10-18T07:46:18.232Z,100.00
2022-10-18T07:48:46.568Z,100.00
2022-10-18T07:51:15.678Z,100.00
2022-10-18T07:53:44.001Z,100.00
2022-10-18T07:56:16.843Z,100.00
2022-10-18T07:58:47.455Z,100.00
2022-10-18T08:01:15.839Z,100.00
2022-10-18T08:03:44.905Z,100.00
2022-10-18T08:06:14.957Z,100.00
2022-10-18T08:08:43.292Z,100.00
2022-10-18T08:11:13.298Z,100.00
2022-10-18T08:13:41.705Z,100.00
2022-10-18T08:16:12.805Z,100.00
2022-10-18T08:18:41.448Z,100.00
2022-10-18T08:21:11.642Z,100.00
2022-10-18T08:23:42.116Z,100.00
2022-10-18T08:26:11.489Z,100.00
2022-10-18T08:28:40.491Z,100.00
2022-10-18T08:31:13.222Z,100.00
2022-10-18T08:33:41.793Z,100.00
2022-10-18T08:36:12.992Z,100.00
2022-10-18T08:38:42.767Z,100.00
2022-10-18T08:41:24.989Z,100.00
2022-10-18T08:43:57.902Z,100.00
2022-10-18T08:46:28.668Z,100.00
2022-10-18T08:48:58.057Z,100.00
2022-10-18T08:51:30.402Z,100.00
2022-10-18T08:54:04.593Z,100.00
2022-10-18T08:56:33.833Z,100.00
2022-10-18T08:59:03.145Z,100.00
2022-10-18T09:01:41.756Z,100.00
2022-10-18T09:04:23.017Z,100.00
2022-10-18T09:07:00.775Z,100.00
2022-10-18T09:09:37.516Z,100.00
2022-10-18T09:12:27.543Z,100.00
2022-10-18T09:15:14.282Z,100.00
2022-10-18T09:17:51.765Z,100.00
2022-10-18T09:20:24.495Z,100.00
2022-10-18T09:22:57.753Z,100.00
2022-10-18T09:25:27.429Z,100.00
2022-10-18T09:27:57.595Z,100.00
2022-10-18T09:30:45.706Z,100.00
2022-10-18T09:33:27.823Z,100.00
2022-10-18T09:35:58.225Z,100.00
2022-10-18T09:38:27.533Z,100.00
2022-10-18T09:40:57.849Z,100.00
2022-10-18T09:43:26.069Z,100.00
2022-10-18T09:45:56.009Z,100.00
2022-10-18T09:48:29.385Z,100.00
2022-10-18T09:50:59.677Z,100.00
2022-10-18T09:53:35.422Z,100.00
2022-10-18T09:56:06.915Z,100.00
2022-10-18T09:58:42.995Z,100.00
2022-10-18T10:01:14.661Z,100.00
2022-10-18T10:03:44.521Z,100.00
2022-10-18T10:06:25.153Z,100.00
2022-10-18T10:09:00.299Z,100.00
2022-10-18T10:11:30.830Z,100.00
2022-10-18T10:14:01.344Z,100.00
2022-10-18T10:16:29.671Z,100.00
2022-10-18T10:18:59.286Z,100.00
2022-10-18T10:21:27.748Z,100.00
2022-10-18T10:23:57.063Z,100.00
2022-10-18T10:26:28.370Z,100.00
2022-10-18T10:28:56.735Z,100.00
2022-10-18T10:31:28.951Z,100.00
2022-10-18T10:34:02.564Z,100.00
2022-10-18T10:36:31.784Z,100.00
2022-10-18T10:39:05.241Z,100.00
2022-10-18T10:41:34.027Z,100.00
2022-10-18T10:44:03.908Z,100.00
2022-10-18T10:46:36.444Z,100.00
2022-10-18T10:49:39.016Z,100.00
2022-10-18T10:52:08.201Z,100.00
2022-10-18T10:54:51.178Z,100.00
2022-10-18T10:57:23.826Z,100.00
2022-10-18T10:59:53.478Z,100.00
2022-10-18T11:02:23.546Z,100.00
2022-10-18T11:04:54.444Z,100.00
2022-10-18T11:07:25.849Z,100.00
2022-10-18T11:09:59.295Z,100.00
2022-10-18T11:12:34.596Z,100.00
2022-10-18T11:15:22.316Z,100.00
2022-10-18T11:18:02.485Z,100.00
2022-10-18T11:20:33.591Z,100.00
2022-10-18T11:23:04.042Z,95.70
2022-10-18T11:25:48.799Z,92.04
2022-10-18T11:28:23.121Z,100.00
2022-10-18T11:31:01.359Z,96.84
2022-10-18T11:33:56.420Z,87.76
2022-10-18T11:36:27.335Z,87.45
2022-10-18T11:38:57.698Z,87.35
2022-10-18T11:41:30.474Z,93.66
2022-10-18T11:44:03.020Z,84.89
2022-10-18T11:46:42.270Z,88.14
2022-10-18T11:49:19.512Z,93.66
2022-10-18T11:52:08.301Z,85.64
2022-10-18T11:54:53.363Z,84.17
2022-10-18T11:57:33.831Z,85.58
2022-10-18T12:00:16.328Z,98.01
2022-10-18T12:02:57.172Z,87.31
2022-10-18T12:05:26.206Z,87.08
2022-10-18T12:07:58.755Z,97.84
2022-10-18T12:10:39.370Z,95.54
2022-10-18T12:13:19.963Z,77.67
2022-10-18T12:15:48.815Z,78.46
2022-10-18T12:18:18.960Z,68.02
2022-10-18T12:20:48.991Z,71.04
2022-10-18T12:23:21.639Z,80.58
2022-10-18T12:25:52.562Z,82.65
2022-10-18T12:28:27.031Z,86.24
2022-10-18T12:31:00.616Z,76.96
2022-10-18T12:33:30.234Z,79.79
2022-10-18T12:36:04.778Z,78.71
2022-10-18T12:38:35.902Z,76.70
2022-10-18T12:41:04.689Z,64.67
2022-10-18T12:43:36.838Z,66.93
2022-10-18T12:46:10.855Z,68.35
2022-10-18T12:48:43.743Z,65.52
2022-10-18T12:51:14.859Z,60.45
2022-10-18T12:53:46.070Z,59.54
2022-10-18T12:56:41.894Z,64.58
2022-10-18T12:59:49.550Z,68.36
2022-10-18T13:02:38.745Z,68.83
2022-10-18T13:05:52.897Z,77.40
2022-10-18T13:08:39.775Z,79.45
2022-10-18T13:11:33.185Z,73.56
2022-10-18T13:14:11.932Z,84.39
2022-10-18T13:16:44.056Z,84.87
2022-10-18T13:19:25.382Z,80.49
2022-10-18T13:22:01.462Z,77.32
2022-10-18T13:24:34.586Z,78.85
2022-10-18T13:27:35.415Z,82.26
2022-10-18T13:30:20.757Z,82.23
2022-10-18T13:32:55.203Z,80.95
2022-10-18T13:35:45.447Z,80.19
2022-10-18T13:38:47.210Z,78.98
2022-10-18T13:41:18.618Z,77.58
2022-10-18T13:44:11.294Z,82.19
2022-10-18T13:47:13.425Z,77.56
2022-10-18T13:49:58.507Z,83.33
2022-10-18T13:52:33.007Z,79.71
2022-10-18T13:55:07.452Z,78.38
2022-10-18T13:57:54.974Z,79.00
2022-10-18T14:00:48.783Z,73.57
2022-10-18T14:03:56.975Z,79.20
2022-10-18T14:06:20.264Z,84.24
2022-10-18T14:08:55.087Z,80.00
2022-10-18T14:11:28.671Z,81.54
2022-10-18T14:14:01.239Z,78.94
2022-10-18T14:16:36.642Z,75.99
2022-10-18T14:19:13.080Z,77.77
2022-10-18T14:21:44.777Z,70.89
2022-10-18T14:24:20.655Z,77.50
2022-10-18T14:26:49.107Z,78.11
2022-10-18T14:29:19.172Z,83.24
2022-10-18T14:31:55.178Z,82.91
2022-10-18T14:34:23.644Z,83.35
2022-10-18T14:36:52.752Z,84.04
2022-10-18T14:39:22.750Z,89.07
2022-10-18T14:41:52.258Z,88.65
2022-10-18T14:44:22.873Z,93.76
2022-10-18T14:46:54.124Z,94.45
2022-10-18T14:49:22.493Z,86.37
2022-10-18T14:51:52.583Z,93.47
2022-10-18T14:54:24.076Z,91.81
2022-10-18T14:56:54.864Z,85.37
2022-10-18T14:59:25.667Z,90.31
2022-10-18T15:01:57.742Z,83.34
2022-10-18T15:04:32.670Z,93.38
2022-10-18T15:07:03.085Z,98.80
2022-10-18T15:09:32.467Z,96.90
2022-10-18T15:12:01.386Z,98.45
2022-10-18T15:14:30.181Z,98.96
2022-10-18T15:17:03.819Z,100.00
2022-10-18T15:19:34.234Z,100.00
2022-10-18T15:22:33.525Z,100.00
2022-10-18T15:25:10.460Z,100.00
2022-10-18T15:30:17.748Z,100.00
2022-10-18T15:32:52.396Z,100.00
2022-10-18T15:35:26.303Z,100.00
2022-10-18T15:37:56.267Z,100.00
2022-10-18T15:40:34.719Z,100.00
2022-10-18T15:43:05.870Z,100.00
2022-10-18T15:45:37.206Z,100.00
2022-10-18T15:48:22.403Z,100.00
2022-10-18T15:50:51.919Z,100.00
2022-10-18T15:53:35.203Z,100.00
2022-10-18T15:56:06.449Z,100.00
2022-10-18T15:58:43.062Z,100.00
2022-10-18T16:01:17.348Z,100.00
2022-10-18T16:03:47.965Z,100.00
2022-10-18T16:06:18.318Z,100.00
2022-10-18T16:08:48.520Z,100.00
2022-10-18T16:11:18.482Z,100.00
2022-10-18T16:13:47.003Z,100.00
2022-10-18T16:16:16.979Z,100.00
2022-10-18T16:18:45.315Z,100.00
2022-10-18T16:21:23.503Z,100.00
2022-10-18T16:23:51.838Z,100.00
2022-10-18T16:26:21.173Z,100.00
2022-10-18T16:28:50.272Z,100.00
2022-10-18T16:31:20.557Z,100.00
2022-10-18T16:33:49.407Z,100.00
2022-10-18T16:36:18.761Z,100.00
2022-10-18T16:38:48.736Z,100.00
2022-10-18T16:41:17.344Z,100.00
2022-10-18T16:43:47.086Z,100.00
2022-10-18T16:46:18.124Z,100.00
2022-10-18T16:48:47.008Z,100.00
2022-10-18T16:51:15.585Z,100.00
2022-10-18T16:53:43.918Z,100.00
2022-10-18T16:56:16.544Z,100.00
2022-10-18T16:58:45.686Z,100.00
2022-10-18T17:01:15.248Z,100.00
2022-10-18T17:03:44.255Z,100.00
2022-10-18T17:06:16.621Z,100.00
2022-10-18T17:08:45.395Z,100.00
2022-10-18T17:11:16.903Z,100.00
2022-10-18T17:13:45.674Z,100.00
2022-10-18T17:16:23.136Z,100.00
2022-10-18T17:18:51.522Z,100.00
2022-10-18T17:21:19.871Z,100.00
2022-10-18T17:23:48.243Z,100.00
2022-10-18T17:26:34.013Z,100.00
2022-10-18T17:29:04.694Z,100.00
2022-10-18T17:31:33.764Z,100.00
2022-10-18T17:34:02.484Z,100.00
2022-10-18T17:36:30.991Z,100.00
2022-10-18T17:38:59.762Z,100.00
2022-10-18T17:41:29.440Z,100.00
2022-10-18T17:43:57.680Z,100.00
2022-10-18T17:46:26.128Z,100.00
2022-10-18T17:48:54.622Z,100.00
2022-10-18T17:51:23.512Z,100.00
2022-10-18T17:53:51.982Z,100.00
2022-10-18T17:56:20.350Z,100.00
2022-10-18T17:58:52.897Z,100.00
2022-10-18T18:01:23.199Z,100.00
2022-10-18T18:03:52.203Z,100.00
2022-10-18T18:06:22.157Z,100.00
2022-10-18T18:08:51.243Z,100.00
2022-10-18T18:11:19.878Z,100.00
2022-10-18T18:13:48.545Z,100.00
2022-10-18T18:16:21.237Z,100.00
2022-10-18T18:18:59.226Z,100.00
2022-10-18T18:21:28.719Z,100.00
2022-10-18T18:23:57.587Z,100.00
2022-10-18T18:26:26.131Z,100.00
2022-10-18T18:28:54.956Z,100.00
2022-10-18T18:31:25.801Z,100.00
2022-10-18T18:33:55.237Z,100.00
2022-10-18T18:36:24.883Z,100.00
2022-10-18T18:38:56.922Z,100.00
2022-10-18T18:41:26.827Z,100.00
2022-10-18T18:43:56.953Z,100.00
2022-10-18T18:46:28.417Z,100.00
2022-10-18T18:48:58.817Z,100.00
2022-10-18T18:51:27.838Z,100.00
2022-10-18T18:53:56.282Z,100.00
2022-10-18T18:56:26.290Z,100.00
2022-10-18T18:58:55.002Z,100.00
2022-10-18T19:01:25.111Z,100.00
2022-10-18T19:03:56.160Z,100.00
2022-10-18T19:06:26.694Z,100.00
2022-10-18T19:09:00.467Z,100.00
2022-10-18T19:11:31.155Z,100.00
2022-10-18T19:13:59.679Z,100.00
2022-10-18T19:16:29.686Z,100.00
2022-10-18T19:19:00.992Z,100.00
2022-10-18T19:21:30.806Z,100.00
2022-10-18T19:23:59.186Z,100.00
2022-10-18T19:26:34.350Z,100.00
2022-10-18T19:29:07.821Z,100.00
2022-10-18T19:31:36.505Z,100.00
2022-10-18T19:34:07.618Z,100.00
2022-10-18T19:36:36.475Z,100.00
2022-10-18T19:39:06.012Z,100.00
2022-10-18T19:41:34.320Z,100.00
2022-10-18T19:44:02.630Z,100.00
2022-10-18T19:46:30.911Z,100.00
2022-10-18T19:48:59.193Z,100.00
2022-10-18T19:51:28.960Z,100.00
2022-10-18T19:53:57.627Z,100.00
2022-10-18T19:56:27.030Z,100.00
2022-10-18T19:58:55.766Z,100.00
2022-10-18T20:01:24.469Z,100.00
2022-10-18T20:03:52.778Z,100.00
2022-10-18T20:06:21.531Z,100.00
2022-10-18T20:08:51.161Z,100.00
2022-10-18T20:11:21.504Z,100.00
2022-10-18T20:13:50.312Z,100.00
2022-10-18T20:16:24.178Z,100.00
2022-10-18T20:18:56.586Z,100.00
2022-10-18T20:21:25.128Z,100.00
2022-10-18T20:23:55.019Z,100.00
2022-10-18T20:26:25.425Z,100.00
2022-10-18T20:28:56.666Z,100.00
2022-10-18T20:31:26.185Z,100.00
2022-10-18T20:33:55.628Z,100.00
2022-10-18T20:36:24.311Z,100.00
2022-10-18T20:38:54.948Z,100.00
2022-10-18T20:41:25.340Z,100.00
2022-10-18T20:43:54.075Z,100.00
2022-10-18T20:46:23.065Z,100.00
2022-10-18T20:48:52.589Z,100.00
2022-10-18T20:51:21.314Z,100.00
2022-10-18T20:53:50.148Z,100.00
2022-10-18T20:56:21.764Z,100.00
2022-10-18T20:58:52.503Z,100.00
2022-10-18T21:01:22.569Z,100.00
2022-10-18T21:03:52.244Z,100.00
2022-10-18T21:06:22.939Z,100.00
2022-10-18T21:08:54.224Z,100.00
2022-10-18T21:11:24.606Z,100.00
2022-10-18T21:13:53.606Z,100.00
2022-10-18T21:16:22.581Z,100.00
2022-10-18T21:18:50.876Z,100.00
2022-10-18T21:21:20.400Z,100.00
2022-10-18T21:23:48.922Z,100.00
2022-10-18T21:26:18.965Z,100.00
2022-10-18T21:28:49.010Z,100.00
2022-10-18T21:31:19.256Z,100.00
2022-10-18T21:33:47.821Z,100.00
2022-10-18T21:36:16.197Z,100.00
2022-10-18T21:38:47.800Z,100.00
2022-10-18T21:41:17.334Z,100.00
2022-10-18T21:43:48.693Z,100.00
2022-10-18T21:46:17.971Z,100.00
2022-10-18T21:48:48.173Z,100.00
2022-10-18T21:51:18.440Z,100.00
2022-10-18T21:53:48.366Z,100.00
2022-10-18T21:56:18.579Z,100.00
2022-10-18T21:58:48.732Z,100.00
2022-10-18T22:01:18.657Z,100.00
2022-10-18T22:03:49.468Z,100.00
2022-10-18T22:06:18.499Z,100.00
2022-10-18T22:08:49.986Z,100.00
2022-10-18T22:11:19.050Z,100.00
2022-10-18T22:13:49.048Z,100.00
2022-10-18T22:16:18.891Z,100.00
2022-10-18T22:18:48.475Z,100.00
2022-10-18T22:21:18.966Z,100.00
2022-10-18T22:23:47.511Z,100.00
2022-10-18T22:26:18.857Z,100.00
2022-10-18T22:28:49.153Z,100.00
2022-10-18T22:31:19.160Z,100.00
2022-10-18T22:33:47.802Z,100.00
2022-10-18T22:36:16.044Z,100.00
2022-10-18T22:38:44.282Z,100.00
2022-10-18T22:41:13.172Z,100.00
2022-10-18T22:43:41.594Z,100.00
2022-10-18T22:46:14.084Z,100.00
2022-10-18T22:48:43.032Z,100.00
2022-10-18T22:51:12.286Z,100.00
2022-10-18T22:53:41.234Z,100.00
2022-10-18T22:56:11.397Z,100.00
2022-10-18T22:58:39.695Z,100.00
2022-10-18T23:01:10.659Z,100.00
2022-10-18T23:03:40.563Z,100.00
2022-10-18T23:06:22.640Z,100.00
2022-10-18T23:08:51.498Z,100.00
2022-10-18T23:11:19.871Z,100.00
2022-10-18T23:13:48.288Z,100.00
2022-10-18T23:16:16.871Z,100.00
2022-10-18T23:18:50.322Z,100.00
2022-10-18T23:21:18.869Z,100.00
2022-10-18T23:23:47.504Z,100.00
2022-10-18T23:26:17.116Z,100.00
2022-10-18T23:28:46.573Z,100.00
2022-10-18T23:31:17.975Z,100.00
2022-10-18T23:33:48.763Z,100.00
2022-10-18T23:36:17.113Z,100.00
2022-10-18T23:38:45.727Z,100.00
2022-10-18T23:41:15.258Z,100.00
2022-10-18T23:43:44.001Z,100.00
2022-10-18T23:46:13.028Z,100.00
2022-10-18T23:48:41.275Z,100.00
2022-10-18T23:51:11.138Z,100.00
2022-10-18T23:53:39.697Z,100.00
2022-10-18T23:56:09.992Z,100.00
2022-10-18T23:58:38.633Z,100.00
